sensor_id;sensor_type;location;lat;lon;timestamp;pressure;altitude;pressure_sealevel;temperature;humidity
25722;BME280;13578;53.450;15.496;2023-02-13T00:02:35;101626.44;;;4.98;100.00
25722;BME280;13578;53.450;15.496;2023-02-13T00:05:35;101621.28;;;4.90;100.00
25722;BME280;13578;53.450;15.496;2023-02-13T00:08:36;101609.84;;;4.80;100.00
25722;BME280;13578;53.450;15.496;2023-02-13T00:11:37;101622.59;;;5.03;100.00
25722;BME280;13578;53.450;15.496;2023-02-13T00:14:38;101612.59;;;5.04;100.00
25722;BME280;13578;53.450;15.496;2023-02-13T00:17:39;101613.66;;;5.00;100.00
25722;BME280;13578;53.450;15.496;2023-02-13T00:20:39;101613.53;;;5.03;100.00
25722;BME280;13578;53.450;15.496;2023-02-13T00:23:40;101613.66;;;5.00;100.00
25722;BME280;13578;53.450;15.496;2023-02-13T00:26:40;101609.03;;;5.02;100.00
25722;BME280;13578;53.450;15.496;2023-02-13T00:29:41;101611.16;;;4.93;100.00
25722;BME280;13578;53.450;15.496;2023-02-13T00:32:42;101608.81;;;5.08;100.00
25722;BME280;13578;53.450;15.496;2023-02-13T00:35:42;101598.28;;;4.99;100.00
25722;BME280;13578;53.450;15.496;2023-02-13T00:38:43;101607.31;;;4.99;100.00
25722;BME280;13578;53.450;15.496;2023-02-13T00:41:44;101610.81;;;5.03;100.00
25722;BME280;13578;53.450;15.496;2023-02-13T00:44:45;101597.38;;;4.98;100.00
25722;BME280;13578;53.450;15.496;2023-02-13T00:47:45;101599.22;;;4.98;100.00
25722;BME280;13578;53.450;15.496;2023-02-13T00:50:46;101599.69;;;4.85;100.00
25722;BME280;13578;53.450;15.496;2023-02-13T00:53:47;101601.97;;;4.98;100.00
25722;BME280;13578;53.450;15.496;2023-02-13T00:56:48;101592.59;;;5.05;100.00
25722;BME280;13578;53.450;15.496;2023-02-13T00:59:48;101592.84;;;4.99;100.00
25722;BME280;13578;53.450;15.496;2023-02-13T01:02:49;101589.47;;;4.92;100.00
25722;BME280;13578;53.450;15.496;2023-02-13T01:05:50;101595.66;;;4.96;100.00
25722;BME280;13578;53.450;15.496;2023-02-13T01:08:51;101593.78;;;4.98;100.00
25722;BME280;13578;53.450;15.496;2023-02-13T01:11:51;101591.84;;;5.01;100.00
25722;BME280;13578;53.450;15.496;2023-02-13T01:14:52;101594.06;;;4.90;100.00
25722;BME280;13578;53.450;15.496;2023-02-13T01:17:53;101592.94;;;4.96;100.00
25722;BME280;13578;53.450;15.496;2023-02-13T01:21:17;101600.09;;;4.98;100.00
25722;BME280;13578;53.450;15.496;2023-02-13T01:24:18;101605.63;;;4.97;100.00
25722;BME280;13578;53.450;15.496;2023-02-13T01:27:19;101602.66;;;5.03;100.00
25722;BME280;13578;53.450;15.496;2023-02-13T01:30:20;101601.06;;;4.97;100.00
25722;BME280;13578;53.450;15.496;2023-02-13T01:33:21;101600.66;;;4.84;100.00
25722;BME280;13578;53.450;15.496;2023-02-13T01:36:23;101592.06;;;4.95;100.00
25722;BME280;13578;53.450;15.496;2023-02-13T01:39:23;101592.78;;;5.00;100.00
25722;BME280;13578;53.450;15.496;2023-02-13T01:42:29;101590.56;;;4.86;100.00
25722;BME280;13578;53.450;15.496;2023-02-13T01:45:30;101591.09;;;4.96;100.00
25722;BME280;13578;53.450;15.496;2023-02-13T01:48:31;101582.91;;;4.98;100.00
25722;BME280;13578;53.450;15.496;2023-02-13T01:51:33;101580.44;;;4.91;100.00
25722;BME280;13578;53.450;15.496;2023-02-13T01:54:35;101572.38;;;4.88;100.00
25722;BME280;13578;53.450;15.496;2023-02-13T01:57:36;101567.78;;;4.89;100.00
25722;BME280;13578;53.450;15.496;2023-02-13T02:00:38;101561.66;;;4.84;100.00
25722;BME280;13578;53.450;15.496;2023-02-13T02:03:44;101561.81;;;4.79;100.00
25722;BME280;13578;53.450;15.496;2023-02-13T02:06:49;101567.94;;;4.86;100.00
25722;BME280;13578;53.450;15.496;2023-02-13T02:09:55;101565.03;;;4.90;100.00
25722;BME280;13578;53.450;15.496;2023-02-13T02:16:06;101574.06;;;4.91;100.00
25722;BME280;13578;53.450;15.496;2023-02-13T02:19:16;101564.31;;;4.85;100.00
25722;BME280;13578;53.450;15.496;2023-02-13T02:22:58;101569.81;;;4.84;100.00
25722;BME280;13578;53.450;15.496;2023-02-13T02:33:11;101577.97;;;4.84;100.00
25722;BME280;13578;53.450;15.496;2023-02-13T02:46:37;101574.31;;;4.85;100.00
25722;BME280;13578;53.450;15.496;2023-02-13T02:50:13;101578.75;;;4.87;100.00
25722;BME280;13578;53.450;15.496;2023-02-13T02:53:37;101579.09;;;4.78;100.00
25722;BME280;13578;53.450;15.496;2023-02-13T02:56:39;101564.59;;;4.77;100.00
25722;BME280;13578;53.450;15.496;2023-02-13T02:59:42;101571.91;;;4.77;100.00
25722;BME280;13578;53.450;15.496;2023-02-13T03:03:04;101573.78;;;4.75;100.00
25722;BME280;13578;53.450;15.496;2023-02-13T03:06:35;101565.53;;;4.76;100.00
25722;BME280;13578;53.450;15.496;2023-02-13T03:09:44;101573.00;;;4.71;100.00
25722;BME280;13578;53.450;15.496;2023-02-13T03:13:15;101568.41;;;4.73;100.00
25722;BME280;13578;53.450;15.496;2023-02-13T03:16:23;101564.94;;;4.68;100.00
25722;BME280;13578;53.450;15.496;2023-02-13T03:19:51;101569.22;;;4.75;100.00
25722;BME280;13578;53.450;15.496;2023-02-13T03:23:16;101563.91;;;4.72;100.00
25722;BME280;13578;53.450;15.496;2023-02-13T03:27:01;101572.94;;;4.73;100.00
25722;BME280;13578;53.450;15.496;2023-02-13T03:30:20;101563.84;;;4.74;100.00
25722;BME280;13578;53.450;15.496;2023-02-13T03:36:58;101579.31;;;4.72;100.00
25722;BME280;13578;53.450;15.496;2023-02-13T03:40:45;101569.34;;;4.72;100.00
25722;BME280;13578;53.450;15.496;2023-02-13T03:44:37;101582.22;;;4.67;100.00
25722;BME280;13578;53.450;15.496;2023-02-13T03:47:36;101585.75;;;4.69;100.00
25722;BME280;13578;53.450;15.496;2023-02-13T03:50:41;101596.66;;;4.69;100.00
25722;BME280;13578;53.450;15.496;2023-02-13T03:53:46;101586.53;;;4.73;100.00
25722;BME280;13578;53.450;15.496;2023-02-13T03:56:51;101590.03;;;4.76;100.00
25722;BME280;13578;53.450;15.496;2023-02-13T04:00:13;101587.31;;;4.76;100.00
25722;BME280;13578;53.450;15.496;2023-02-13T04:03:56;101588.41;;;4.71;100.00
25722;BME280;13578;53.450;15.496;2023-02-13T04:07:02;101591.13;;;4.71;100.00
25722;BME280;13578;53.450;15.496;2023-02-13T04:10:12;101580.63;;;4.61;100.00
25722;BME280;13578;53.450;15.496;2023-02-13T04:13:19;101575.97;;;4.65;100.00
25722;BME280;13578;53.450;15.496;2023-02-13T04:16:44;101583.03;;;4.69;100.00
25722;BME280;13578;53.450;15.496;2023-02-13T04:19:47;101585.84;;;4.68;100.00
25722;BME280;13578;53.450;15.496;2023-02-13T04:22:47;101580.47;;;4.66;100.00
25722;BME280;13578;53.450;15.496;2023-02-13T04:25:51;101578.78;;;4.62;100.00
25722;BME280;13578;53.450;15.496;2023-02-13T04:28:53;101581.72;;;4.56;100.00
25722;BME280;13578;53.450;15.496;2023-02-13T04:31:54;101580.66;;;4.60;100.00
25722;BME280;13578;53.450;15.496;2023-02-13T04:34:54;101580.63;;;4.61;100.00
25722;BME280;13578;53.450;15.496;2023-02-13T04:37:55;101575.28;;;4.58;100.00
25722;BME280;13578;53.450;15.496;2023-02-13T04:40:56;101571.69;;;4.58;100.00
25722;BME280;13578;53.450;15.496;2023-02-13T04:43:56;101577.00;;;4.61;100.00
25722;BME280;13578;53.450;15.496;2023-02-13T04:46:57;101569.69;;;4.63;100.00
25722;BME280;13578;53.450;15.496;2023-02-13T04:49:57;101578.63;;;4.67;100.00
25722;BME280;13578;53.450;15.496;2023-02-13T04:52:58;101588.97;;;4.55;100.00
25722;BME280;13578;53.450;15.496;2023-02-13T04:55:59;101579.72;;;4.61;100.00
25722;BME280;13578;53.450;15.496;2023-02-13T04:58:59;101583.53;;;4.55;100.00
25722;BME280;13578;53.450;15.496;2023-02-13T05:02:00;101591.00;;;4.50;100.00
25722;BME280;13578;53.450;15.496;2023-02-13T05:05:00;101585.47;;;4.53;100.00
25722;BME280;13578;53.450;15.496;2023-02-13T05:08:01;101586.09;;;4.60;100.00
25722;BME280;13578;53.450;15.496;2023-02-13T05:11:02;101595.19;;;4.59;100.00
25722;BME280;13578;53.450;15.496;2023-02-13T05:14:03;101598.75;;;4.61;100.00
25722;BME280;13578;53.450;15.496;2023-02-13T05:17:03;101598.88;;;4.58;100.00
25722;BME280;13578;53.450;15.496;2023-02-13T05:20:05;101595.16;;;4.60;100.00
25722;BME280;13578;53.450;15.496;2023-02-13T05:23:12;101588.81;;;4.60;100.00
25722;BME280;13578;53.450;15.496;2023-02-13T05:26:21;101580.00;;;4.53;100.00
25722;BME280;13578;53.450;15.496;2023-02-13T05:29:22;101591.53;;;4.60;100.00
25722;BME280;13578;53.450;15.496;2023-02-13T05:32:23;101597.03;;;4.58;100.00
25722;BME280;13578;53.450;15.496;2023-02-13T05:35:23;101597.97;;;4.57;100.00
25722;BME280;13578;53.450;15.496;2023-02-13T05:38:24;101595.16;;;4.60;100.00
25722;BME280;13578;53.450;15.496;2023-02-13T05:41:28;101606.88;;;4.63;100.00
25722;BME280;13578;53.450;15.496;2023-02-13T05:44:29;101604.97;;;4.65;100.00
25722;BME280;13578;53.450;15.496;2023-02-13T05:47:30;101606.31;;;4.53;100.00
25722;BME280;13578;53.450;15.496;2023-02-13T05:50:31;101610.53;;;4.61;100.00
25722;BME280;13578;53.450;15.496;2023-02-13T05:53:31;101621.41;;;4.61;100.00
25722;BME280;13578;53.450;15.496;2023-02-13T05:56:34;101622.38;;;4.59;100.00
25722;BME280;13578;53.450;15.496;2023-02-13T05:59:35;101631.47;;;4.59;100.00
25722;BME280;13578;53.450;15.496;2023-02-13T06:02:35;101631.47;;;4.59;100.00
25722;BME280;13578;53.450;15.496;2023-02-13T06:05:36;101623.38;;;4.58;100.00
25722;BME280;13578;53.450;15.496;2023-02-13T06:08:37;101625.13;;;4.59;100.00
25722;BME280;13578;53.450;15.496;2023-02-13T06:11:37;101626.97;;;4.58;100.00
25722;BME280;13578;53.450;15.496;2023-02-13T06:14:38;101632.41;;;4.58;100.00
25722;BME280;13578;53.450;15.496;2023-02-13T06:17:38;101640.72;;;4.54;100.00
25722;BME280;13578;53.450;15.496;2023-02-13T06:20:39;101644.34;;;4.54;100.00
25722;BME280;13578;53.450;15.496;2023-02-13T06:23:39;101645.66;;;4.42;100.00
25722;BME280;13578;53.450;15.496;2023-02-13T06:26:40;101645.31;;;4.52;100.00
25722;BME280;13578;53.450;15.496;2023-02-13T06:29:41;101654.16;;;4.58;100.00
25722;BME280;13578;53.450;15.496;2023-02-13T06:32:42;101643.88;;;4.41;100.00
25722;BME280;13578;53.450;15.496;2023-02-13T06:35:42;101641.78;;;4.50;100.00
25722;BME280;13578;53.450;15.496;2023-02-13T06:38:43;101641.94;;;4.45;100.00
25722;BME280;13578;53.450;15.496;2023-02-13T06:41:43;101651.75;;;4.49;100.00
25722;BME280;13578;53.450;15.496;2023-02-13T06:44:44;101655.94;;;4.59;100.00
25722;BME280;13578;53.450;15.496;2023-02-13T06:47:46;101657.03;;;4.54;100.00
25722;BME280;13578;53.450;15.496;2023-02-13T06:50:47;101653.66;;;4.47;100.00
25722;BME280;13578;53.450;15.496;2023-02-13T06:53:47;101657.25;;;4.48;100.00
25722;BME280;13578;53.450;15.496;2023-02-13T06:56:48;101658.91;;;4.52;100.00
25722;BME280;13578;53.450;15.496;2023-02-13T06:59:49;101665.19;;;4.54;100.00
25722;BME280;13578;53.450;15.496;2023-02-13T07:02:49;101669.75;;;4.53;100.00
25722;BME280;13578;53.450;15.496;2023-02-13T07:05:50;101677.13;;;4.50;100.00
25722;BME280;13578;53.450;15.496;2023-02-13T07:08:51;101674.41;;;4.50;100.00
25722;BME280;13578;53.450;15.496;2023-02-13T07:11:54;101675.06;;;4.56;100.00
25722;BME280;13578;53.450;15.496;2023-02-13T07:14:55;101674.41;;;4.50;100.00
25722;BME280;13578;53.450;15.496;2023-02-13T07:17:56;101670.56;;;4.55;100.00
25722;BME280;13578;53.450;15.496;2023-02-13T07:20:57;101683.34;;;4.53;100.00
25722;BME280;13578;53.450;15.496;2023-02-13T07:23:58;101680.47;;;4.58;100.00
25722;BME280;13578;53.450;15.496;2023-02-13T07:26:58;101673.25;;;4.57;100.00
25722;BME280;13578;53.450;15.496;2023-02-13T07:29:59;101686.69;;;4.61;100.00
25722;BME280;13578;53.450;15.496;2023-02-13T07:33:00;101678.63;;;4.58;100.00
25722;BME280;13578;53.450;15.496;2023-02-13T07:36:02;101679.72;;;4.53;100.00
25722;BME280;13578;53.450;15.496;2023-02-13T07:39:03;101681.63;;;4.51;100.00
25722;BME280;13578;53.450;15.496;2023-02-13T07:42:05;101683.34;;;4.53;100.00
25722;BME280;13578;53.450;15.496;2023-02-13T07:45:05;101683.97;;;4.61;100.00
25722;BME280;13578;53.450;15.496;2023-02-13T07:48:06;101696.72;;;4.59;100.00
25722;BME280;13578;53.450;15.496;2023-02-13T07:51:07;101698.66;;;4.56;100.00
25722;BME280;13578;53.450;15.496;2023-02-13T07:54:08;101681.25;;;4.61;100.00
25722;BME280;13578;53.450;15.496;2023-02-13T07:57:09;101696.50;;;4.66;100.00
25722;BME280;13578;53.450;15.496;2023-02-13T08:00:10;101703.03;;;4.60;100.00
25722;BME280;13578;53.450;15.496;2023-02-13T08:03:10;101709.72;;;4.76;100.00
25722;BME280;13578;53.450;15.496;2023-02-13T08:06:11;101706.13;;;4.76;100.00
25722;BME280;13578;53.450;15.496;2023-02-13T08:09:19;101706.22;;;4.73;100.00
25722;BME280;13578;53.450;15.496;2023-02-13T08:12:39;101715.69;;;4.88;100.00
25722;BME280;13578;53.450;15.496;2023-02-13T08:15:39;101704.84;;;4.86;100.00
25722;BME280;13578;53.450;15.496;2023-02-13T08:18:40;101700.56;;;4.79;100.00
25722;BME280;13578;53.450;15.496;2023-02-13T08:21:41;101702.97;;;4.88;100.00
25722;BME280;13578;53.450;15.496;2023-02-13T08:24:42;101694.91;;;4.85;100.00
25722;BME280;13578;53.450;15.496;2023-02-13T08:27:42;101694.72;;;4.91;100.00
25722;BME280;13578;53.450;15.496;2023-02-13T08:30:43;101696.59;;;4.89;100.00
25722;BME280;13578;53.450;15.496;2023-02-13T08:33:43;101704.38;;;5.00;100.00
25722;BME280;13578;53.450;15.496;2023-02-13T08:36:44;101700.03;;;4.95;100.00
25722;BME280;13578;53.450;15.496;2023-02-13T08:39:45;101702.66;;;4.98;100.00
25722;BME280;13578;53.450;15.496;2023-02-13T08:42:45;101702.41;;;5.04;100.00
25722;BME280;13578;53.450;15.496;2023-02-13T08:45:46;101702.41;;;5.04;100.00
25722;BME280;13578;53.450;15.496;2023-02-13T08:48:46;101700.47;;;5.07;100.00
25722;BME280;13578;53.450;15.496;2023-02-13T08:51:47;101705.75;;;5.12;100.00
25722;BME280;13578;53.450;15.496;2023-02-13T08:54:47;101700.53;;;5.06;100.00
25722;BME280;13578;53.450;15.496;2023-02-13T08:57:48;101709.34;;;5.13;100.00
25722;BME280;13578;53.450;15.496;2023-02-13T09:00:49;101708.41;;;5.14;100.00
25722;BME280;13578;53.450;15.496;2023-02-13T09:03:49;101712.84;;;5.16;100.00
25722;BME280;13578;53.450;15.496;2023-02-13T09:06:50;101708.34;;;5.15;100.00
25722;BME280;13578;53.450;15.496;2023-02-13T09:09:51;101714.63;;;5.17;100.00
25722;BME280;13578;53.450;15.496;2023-02-13T09:12:52;101715.47;;;5.19;100.00
25722;BME280;13578;53.450;15.496;2023-02-13T09:15:53;101716.28;;;5.21;100.00
25722;BME280;13578;53.450;15.496;2023-02-13T09:18:53;101713.78;;;5.15;100.00
25722;BME280;13578;53.450;15.496;2023-02-13T09:21:54;101707.41;;;5.16;100.00
25722;BME280;13578;53.450;15.496;2023-02-13T09:24:55;101704.34;;;5.25;100.00
25722;BME280;13578;53.450;15.496;2023-02-13T09:27:55;101708.09;;;5.21;100.00
25722;BME280;13578;53.450;15.496;2023-02-13T09:30:56;101700.69;;;5.27;100.00
25722;BME280;13578;53.450;15.496;2023-02-13T09:33:57;101706.06;;;5.28;100.00
25722;BME280;13578;53.450;15.496;2023-02-13T09:36:57;101710.22;;;5.38;100.00
25722;BME280;13578;53.450;15.496;2023-02-13T09:39:58;101721.22;;;5.35;100.00
25722;BME280;13578;53.450;15.496;2023-02-13T09:43:09;101715.66;;;5.38;100.00
25722;BME280;13578;53.450;15.496;2023-02-13T09:46:15;101713.13;;;5.34;100.00
25722;BME280;13578;53.450;15.496;2023-02-13T09:49:19;101710.16;;;5.40;100.00
25722;BME280;13578;53.450;15.496;2023-02-13T09:52:25;101720.09;;;5.41;100.00
25722;BME280;13578;53.450;15.496;2023-02-13T09:58:59;101718.09;;;5.46;100.00
25722;BME280;13578;53.450;15.496;2023-02-13T10:02:36;101712.69;;;5.45;100.00
25722;BME280;13578;53.450;15.496;2023-02-13T10:05:45;101715.34;;;5.46;100.00
25722;BME280;13578;53.450;15.496;2023-02-13T10:19:12;101719.03;;;5.45;100.00
25722;BME280;13578;53.450;15.496;2023-02-13T10:22:32;101720.97;;;5.41;100.00
25722;BME280;13578;53.450;15.496;2023-02-13T10:25:57;101730.84;;;5.44;100.00
25722;BME280;13578;53.450;15.496;2023-02-13T10:29:05;101724.44;;;5.47;100.00
25722;BME280;13578;53.450;15.496;2023-02-13T10:35:29;101737.38;;;5.40;100.00
25722;BME280;13578;53.450;15.496;2023-02-13T10:38:33;101730.84;;;5.44;100.00
25722;BME280;13578;53.450;15.496;2023-02-13T10:41:53;101727.34;;;5.42;100.00
25722;BME280;13578;53.450;15.496;2023-02-13T10:51:29;101721.38;;;5.31;100.00
25722;BME280;13578;53.450;15.496;2023-02-13T10:55:28;101718.41;;;5.37;100.00
25722;BME280;13578;53.450;15.496;2023-02-13T10:58:20;101713.13;;;5.34;100.00
25722;BME280;13578;53.450;15.496;2023-02-13T11:01:48;101704.03;;;5.33;100.00
25722;BME280;13578;53.450;15.496;2023-02-13T11:04:57;101708.84;;;5.27;100.00
25722;BME280;13578;53.450;15.496;2023-02-13T11:07:58;101712.88;;;5.40;100.00
25722;BME280;13578;53.450;15.496;2023-02-13T11:11:01;101711.09;;;5.39;100.00
25722;BME280;13578;53.450;15.496;2023-02-13T11:14:24;101708.13;;;5.45;100.00
25722;BME280;13578;53.450;15.496;2023-02-13T11:17:28;101704.81;;;5.37;100.00
25722;BME280;13578;53.450;15.496;2023-02-13T11:20:35;101694.69;;;5.40;100.00
25722;BME280;13578;53.450;15.496;2023-02-13T11:23:41;101691.44;;;5.31;100.00
25722;BME280;13578;53.450;15.496;2023-02-13T11:26:42;101700.97;;;5.43;100.00
25722;BME280;13578;53.450;15.496;2023-02-13T11:29:55;101700.72;;;5.49;100.00
25722;BME280;13578;53.450;15.496;2023-02-13T11:36:06;101712.63;;;5.46;100.00
25722;BME280;13578;53.450;15.496;2023-02-13T11:39:18;101706.94;;;5.52;100.00
25722;BME280;13578;53.450;15.496;2023-02-13T11:42:26;101697.13;;;5.48;100.00
25722;BME280;13578;53.450;15.496;2023-02-13T11:45:28;101693.41;;;5.51;100.00
25722;BME280;13578;53.450;15.496;2023-02-13T11:48:28;101687.28;;;5.44;100.00
25722;BME280;13578;53.450;15.496;2023-02-13T11:51:44;101686.31;;;5.47;100.00
25722;BME280;13578;53.450;15.496;2023-02-13T11:54:55;101690.59;;;5.52;100.00
25722;BME280;13578;53.450;15.496;2023-02-13T11:58:02;101681.41;;;5.55;100.00
25722;BME280;13578;53.450;15.496;2023-02-13T12:01:29;101678.47;;;5.61;100.00
25722;BME280;13578;53.450;15.496;2023-02-13T12:04:30;101679.59;;;5.55;100.00
25722;BME280;13578;53.450;15.496;2023-02-13T12:07:32;101686.84;;;5.56;100.00
25722;BME280;13578;53.450;15.496;2023-02-13T12:10:35;101684.91;;;5.59;100.00
25722;BME280;13578;53.450;15.496;2023-02-13T12:13:37;101687.41;;;5.65;100.00
25722;BME280;13578;53.450;15.496;2023-02-13T12:20:14;101687.34;;;5.66;100.00
25722;BME280;13578;53.450;15.496;2023-02-13T12:24:02;101683.53;;;5.70;100.00
25722;BME280;13578;53.450;15.496;2023-02-13T12:56:44;101640.84;;;5.71;100.00
25722;BME280;13578;53.450;15.496;2023-02-13T13:10:23;101636.22;;;5.73;100.00
25722;BME280;13578;53.450;15.496;2023-02-13T13:26:39;101658.84;;;5.75;100.00
25722;BME280;13578;53.450;15.496;2023-02-13T13:29:48;101655.34;;;5.71;100.00
25722;BME280;13578;53.450;15.496;2023-02-13T13:33:03;101644.63;;;5.67;100.00
25722;BME280;13578;53.450;15.496;2023-02-13T13:39:28;101623.09;;;5.61;100.00
25722;BME280;13578;53.450;15.496;2023-02-13T13:42:44;101619.44;;;5.62;100.00
25722;BME280;13578;53.450;15.496;2023-02-13T13:58:47;101644.13;;;5.57;100.00
25722;BME280;13578;53.450;15.496;2023-02-13T14:05:23;101631.34;;;5.59;100.00
25722;BME280;13578;53.450;15.496;2023-02-13T14:11:51;101636.97;;;5.54;100.00
25722;BME280;13578;53.450;15.496;2023-02-13T14:14:53;101645.06;;;5.56;100.00
25722;BME280;13578;53.450;15.496;2023-02-13T14:17:54;101644.13;;;5.57;100.00
25722;BME280;13578;53.450;15.496;2023-02-13T14:20:58;101640.78;;;5.50;100.00
25722;BME280;13578;53.450;15.496;2023-02-13T14:23:59;101656.13;;;5.51;100.00
25722;BME280;13578;53.450;15.496;2023-02-13T14:27:03;101653.41;;;5.51;100.00
25722;BME280;13578;53.450;15.496;2023-02-13T14:30:25;101659.84;;;5.50;100.00
25722;BME280;13578;53.450;15.496;2023-02-13T14:33:28;101647.97;;;5.51;100.00
25722;BME280;13578;53.450;15.496;2023-02-13T14:36:36;101646.31;;;5.47;100.00
25722;BME280;13578;53.450;15.496;2023-02-13T14:39:37;101637.38;;;5.44;100.00
25722;BME280;13578;53.450;15.496;2023-02-13T14:42:43;101648.22;;;5.45;100.00
25722;BME280;13578;53.450;15.496;2023-02-13T14:45:57;101650.00;;;5.46;100.00
25722;BME280;13578;53.450;15.496;2023-02-13T14:49:19;101633.78;;;5.43;100.00
25722;BME280;13578;53.450;15.496;2023-02-13T14:52:25;101638.41;;;5.41;100.00
25722;BME280;13578;53.450;15.496;2023-02-13T14:55:30;101642.06;;;5.40;100.00
25722;BME280;13578;53.450;15.496;2023-02-13T14:58:35;101634.97;;;5.36;100.00
25722;BME280;13578;53.450;15.496;2023-02-13T15:01:45;101637.63;;;5.37;100.00
25722;BME280;13578;53.450;15.496;2023-02-13T15:04:53;101629.53;;;5.36;100.00
25722;BME280;13578;53.450;15.496;2023-02-13T15:08:06;101629.66;;;5.33;100.00
25722;BME280;13578;53.450;15.496;2023-02-13T15:11:11;101626.31;;;5.24;100.00
25722;BME280;13578;53.450;15.496;2023-02-13T15:14:35;101645.28;;;5.28;100.00
25722;BME280;13578;53.450;15.496;2023-02-13T15:17:36;101635.19;;;5.30;100.00
25722;BME280;13578;53.450;15.496;2023-02-13T15:20:41;101633.56;;;5.25;100.00
25722;BME280;13578;53.450;15.496;2023-02-13T15:23:43;101633.63;;;5.24;100.00
25722;BME280;13578;53.450;15.496;2023-02-13T15:26:49;101641.63;;;5.29;100.00
25722;BME280;13578;53.450;15.496;2023-02-13T15:29:55;101651.53;;;5.30;100.00
25722;BME280;13578;53.450;15.496;2023-02-13T15:32:59;101642.41;;;5.31;100.00
25722;BME280;13578;53.450;15.496;2023-02-13T15:36:02;101653.38;;;5.29;100.00
25722;BME280;13578;53.450;15.496;2023-02-13T15:39:05;101646.25;;;5.25;100.00
25722;BME280;13578;53.450;15.496;2023-02-13T15:42:10;101645.56;;;5.20;100.00
25722;BME280;13578;53.450;15.496;2023-02-13T15:45:19;101641.19;;;5.16;100.00
25722;BME280;13578;53.450;15.496;2023-02-13T15:48:20;101641.97;;;5.19;100.00
25722;BME280;13578;53.450;15.496;2023-02-13T15:51:25;101641.03;;;5.20;100.00
25722;BME280;13578;53.450;15.496;2023-02-13T15:54:31;101642.91;;;5.18;100.00
25722;BME280;13578;53.450;15.496;2023-02-13T15:57:32;101646.50;;;5.19;100.00
25722;BME280;13578;53.450;15.496;2023-02-13T16:00:36;101640.34;;;5.14;100.00
25722;BME280;13578;53.450;15.496;2023-02-13T16:03:39;101645.69;;;5.17;100.00
25722;BME280;13578;53.450;15.496;2023-02-13T16:06:42;101653.84;;;5.17;100.00
25722;BME280;13578;53.450;15.496;2023-02-13T16:09:44;101643.13;;;5.12;100.00
25722;BME280;13578;53.450;15.496;2023-02-13T16:12:46;101645.97;;;5.09;100.00
25722;BME280;13578;53.450;15.496;2023-02-13T16:15:47;101654.91;;;5.13;100.00
25722;BME280;13578;53.450;15.496;2023-02-13T16:18:48;101646.91;;;5.08;100.00
25722;BME280;13578;53.450;15.496;2023-02-13T16:21:50;101642.31;;;5.10;100.00
25722;BME280;13578;53.450;15.496;2023-02-13T16:24:53;101634.13;;;5.10;100.00
25722;BME280;13578;53.450;15.496;2023-02-13T16:28:02;101643.25;;;5.09;100.00
25722;BME280;13578;53.450;15.496;2023-02-13T16:31:05;101640.66;;;5.06;100.00
25722;BME280;13578;53.450;15.496;2023-02-13T16:34:24;101625.28;;;5.05;100.00
25722;BME280;13578;53.450;15.496;2023-02-13T16:37:31;101632.00;;;4.95;100.00
25722;BME280;13578;53.450;15.496;2023-02-13T16:40:41;101629.09;;;4.99;100.00
25722;BME280;13578;53.450;15.496;2023-02-13T16:43:50;101638.91;;;5.03;100.00
25722;BME280;13578;53.450;15.496;2023-02-13T16:46:56;101639.91;;;5.01;100.00
25722;BME280;13578;53.450;15.496;2023-02-13T16:49:57;101643.72;;;4.97;100.00
25722;BME280;13578;53.450;15.496;2023-02-13T16:53:02;101643.81;;;4.93;100.00
25722;BME280;13578;53.450;15.496;2023-02-13T16:56:10;101647.31;;;4.97;100.00
25722;BME280;13578;53.450;15.496;2023-02-13T16:59:34;101651.97;;;4.93;100.00
25722;BME280;13578;53.450;15.496;2023-02-13T17:02:37;101654.59;;;4.97;100.00
25722;BME280;13578;53.450;15.496;2023-02-13T17:05:39;101658.38;;;4.92;100.00
25722;BME280;13578;53.450;15.496;2023-02-13T17:08:39;101655.53;;;4.96;100.00
25722;BME280;13578;53.450;15.496;2023-02-13T17:11:40;101656.63;;;4.91;100.00
25722;BME280;13578;53.450;15.496;2023-02-13T17:14:41;101659.44;;;4.88;100.00
25722;BME280;13578;53.450;15.496;2023-02-13T17:17:42;101655.06;;;4.84;100.00
25722;BME280;13578;53.450;15.496;2023-02-13T17:20:43;101657.72;;;4.86;100.00
25722;BME280;13578;53.450;15.496;2023-02-13T17:23:44;101658.50;;;4.89;100.00
25722;BME280;13578;53.450;15.496;2023-02-13T17:26:47;101662.94;;;4.92;100.00
25722;BME280;13578;53.450;15.496;2023-02-13T17:29:47;101664.09;;;4.85;100.00
25722;BME280;13578;53.450;15.496;2023-02-13T17:32:57;101661.31;;;4.86;100.00
25722;BME280;13578;53.450;15.496;2023-02-13T17:35:58;101659.75;;;4.79;100.00
25722;BME280;13578;53.450;15.496;2023-02-13T17:38:58;101657.94;;;4.80;100.00
25722;BME280;13578;53.450;15.496;2023-02-13T17:41:59;101658.72;;;4.83;100.00
25722;BME280;13578;53.450;15.496;2023-02-13T17:45:00;101656.94;;;4.82;100.00
25722;BME280;13578;53.450;15.496;2023-02-13T17:48:01;101650.72;;;4.79;100.00
25722;BME280;13578;53.450;15.496;2023-02-13T17:51:02;101656.22;;;4.77;100.00
25722;BME280;13578;53.450;15.496;2023-02-13T17:54:03;101656.63;;;4.66;100.00
25722;BME280;13578;53.450;15.496;2023-02-13T17:57:03;101654.00;;;4.63;100.00
25722;BME280;13578;53.450;15.496;2023-02-13T18:00:05;101648.50;;;4.65;100.00
25722;BME280;13578;53.450;15.496;2023-02-13T18:03:06;101647.78;;;4.59;100.00
25722;BME280;13578;53.450;15.496;2023-02-13T18:06:10;101643.38;;;4.55;100.00
25722;BME280;13578;53.450;15.496;2023-02-13T18:09:11;101647.88;;;4.56;100.00